Overview Statistics Trail Chart Weather Telemetry Raw packets
 

This is the latest recevied telemetry packets stored in our database for station/object OE6POD-6. If no packets are shown the sender has not sent any telemetry packets the latest 10 day(s).

Telemetry packets is used to share measurements like repeteater parameters, battery voltage, radiation readings (or any other measurements).

<< 1 2 >>
Time Press* Temp.in* Hum* QNH* Temp.out*
1778217314 934 hPa 13.9 C deg 50.7 % 1011.7 hPa 0 C deg
1778215348 939.2 hPa 11.3 C deg 46.4 % 1021.1 hPa 0 C deg
1778172523 935.2 hPa 19.2 C deg 40.4 % 1020.8 hPa 0 C deg
1778164869 933.9 hPa 24.6 C deg 29 % 1008.5 hPa 0 C deg
1778156570 932.7 hPa 25.5 C deg 23.7 % 1007 hPa 0 C deg
1778141614 929.3 hPa 25.4 C deg 34 % 1004.1 hPa 0 C deg
1778141250 934.2 hPa 20.1 C deg 41.9 % 1010.8 hPa 0 C deg
1778069743 930.5 hPa 27 C deg 29.2 % 1009 hPa 0 C deg
1778063989 931.4 hPa 23 C deg 34.9 % 1012.2 hPa 0 C deg
1778063966 931.4 hPa 23 C deg 34.9 % 1012.2 hPa 0 C deg
1777985131 927.7 hPa 31.1 C deg 19.7 % 1006.3 hPa 0 C deg
1777966609 933.4 hPa 30.6 C deg 25.1 % 1008.7 hPa 0 C deg
1777951596 933.8 hPa 12.6 C deg 36 % 1013.9 hPa 0 C deg
1777908572 934.6 hPa 25.3 C deg 18.8 % 1008.7 hPa 0 C deg
1777703422 949 hPa 36.3 C deg 15.8 % 1023.8 hPa 0 C deg
1777701592 947.5 hPa 9.3 C deg 27.9 % 1029.7 hPa 0 C deg
1777631713 947.7 hPa 9.6 C deg 29.2 % 1032.7 hPa 0 C deg
1777559070 945.2 hPa 30.9 C deg 15.6 % 1022.3 hPa 0 C deg
1777558878 945.2 hPa 31.9 C deg 16.1 % 1022.1 hPa 0 C deg
1777538249 942.7 hPa 23.2 C deg 21.3 % 1026.3 hPa 0 C deg
1777538101 942.6 hPa 23.4 C deg 20.3 % 1026.1 hPa 0 C deg
1777536806 949.3 hPa 15.7 C deg 32.2 % 1029.4 hPa 0 C deg
1777450928 942.3 hPa 10.6 C deg 35.9 % 1026.1 hPa 0 C deg
1777393150 939 hPa 18.4 C deg 37.7 % 1021 hPa 0 C deg
1777390410 937.6 hPa 19.7 C deg 32.7 % 1015.8 hPa 0 C deg
*Used Equation Coefficients:
Press: 0, 1, 0
Temp.in: 0, 1, 0
Hum: 0, 1, 0
QNH: 0, 1, 0
Temp.out: 0, 1, 0

  • The parameter names for the analog channels will be Value1, Value2, Value3 (up to Value5) if station has not sent a PARAM-packet that specifies the parameter names for each analog channel.
  • Each analog value is a decimal number between 000 and 255 (according to APRS specifications). The receiver use the telemetry equation coefficientsto to restore the original sensor values. If no EQNS-packet with equation coefficients is sent we will show the values as is (this corresponds to the equation coefficients a=0, b=1 and c=0).
    The sent equation coefficients is used in the equation: a * value2 + b * value + c.
  • The units for the analog values will not be shown if station has not sent a UNIT-packet specifying what unit's to use.
  • The parameter names for the digital bits will be Bit1, Bit2, Bit3 (up to Bit8) if station has not sent a PARAM-packet that specifies the parameter names for each digital bit.
  • All bit labels will be named "On" if station has not sent a UNIT-packet that specifies the label of each bit.
  • A bit is considered to be On when the bit is 1 if station has not sent a BITS-packet that specifies another "Bit sense" (a BITS-packet specify the state of the bits that match the BIT labels)